Liberty — FHQD — position and weather

sailwx.info

Track history (hours):
 
Tides and Currents Weather Stations Pressure Air Temp Water Temp Dewpoint Dewpoint Depression Visibility Wind Speed Wind Dir Waves Ship Positions

Liberty

Last reported at 2017-Nov-17 23:01 UTC. Time now 2017-Nov-18 01:22 UTC.
Position N 15°58' W 061°44'.

Length 47 m; draft 1.8 m.

Type: High speed craft. MMSI: 228008600.

Date/timePositionNaut miles runAvg speedWind from/ knotsBaromVisibWave heightAir tempDewpointWater temp
2017-Nov-17 23:01N 15°58' W 061°44'030.4
2017-Nov-17 23:00N 15°58' W 061°44'2116.3
2017-Nov-17 21:45N 15°57' W 061°22'927.1
2017-Nov-17 21:24N 16°06' W 061°27'923.8
2017-Nov-17 21:01N 16°14' W 061°32'1 1.5
2017-Nov-17 20:22N 16°14' W 061°32'0 0.0
2017-Nov-17 19:46N 16°14' W 061°32'0 0.0
2017-Nov-17 19:23N 16°14' W 061°32'0 0.0
2017-Nov-17 18:43N 16°14' W 061°32'0 0.0
2017-Nov-17 18:30N 16°14' W 061°32'0 0.0
2017-Nov-17 18:00N 16°14' W 061°32'612.0
2017-Nov-17 17:31N 16°09' W 061°30'8923.7
2017-Nov-17 13:46N 14°42' W 061°12'26 1.3
2017-Nov-16 18:02N 14°17' W 061°03'127.0
2017-Nov-16 18:00N 14°18' W 061°03'1427.3
2017-Nov-16 17:30N 14°32' W 061°06'510.1
2017-Nov-16 17:00N 14°36' W 061°04'0 0.4
2017-Nov-16 16:30N 14°36' W 061°04'9022.5
2017-Nov-16 12:30N 16°03' W 061°30'1123.0
2017-Nov-16 12:00N 16°14' W 061°32'0 0.9
2017-Nov-16 11:30N 16°14' W 061°32'0 0.0
2017-Nov-16 11:00N 16°14' W 061°32'0 0.0
2017-Nov-16 10:30N 16°14' W 061°32'0 0.0
2017-Nov-16 10:00N 16°14' W 061°32'0 0.0
2017-Nov-16 09:30N 16°14' W 061°32'0 0.0
2017-Nov-16 09:00N 16°14' W 061°32'0 0.0
2017-Nov-16 08:29N 16°14' W 061°32'0 0.0
2017-Nov-16 08:00N 16°14' W 061°32'0 0.0
2017-Nov-16 07:28N 16°14' W 061°32'0 0.0
2017-Nov-16 07:00N 16°14' W 061°32'0 0.0
2017-Nov-16 06:24N 16°14' W 061°32'0 0.0
2017-Nov-16 05:45N 16°14' W 061°32'0 0.0
2017-Nov-16 05:30N 16°14' W 061°32'0 0.0
2017-Nov-16 04:37N 16°14' W 061°32'0 0.0
2017-Nov-16 04:13N 16°14' W 061°32'0 0.0
2017-Nov-16 03:50N 16°14' W 061°32'0 0.0
2017-Nov-16 03:13N 16°14' W 061°32'0 0.0
2017-Nov-16 02:59N 16°14' W 061°32'0 0.0
2017-Nov-16 02:24N 16°14' W 061°32'0 0.0
2017-Nov-16 01:58N 16°14' W 061°32'0 0.0
2017-Nov-16 01:30N 16°14' W 061°32'0 0.0
2017-Nov-16 01:00N 16°14' W 061°32'0 0.0
2017-Nov-15 21:44N 16°14' W 061°32'0 0.0
2017-Nov-15 21:29N 16°14' W 061°32'0 0.0
2017-Nov-15 21:00N 16°14' W 061°32'1 2.0
2017-Nov-15 20:30N 16°13' W 061°32'1 2.0
2017-Nov-15 20:00N 16°14' W 061°32'0 0.0
2017-Nov-15 19:30N 16°14' W 061°32'0 0.0
2017-Nov-15 19:00N 16°14' W 061°32'0 0.0
2017-Nov-15 18:30N 16°14' W 061°32'0 0.0
2017-Nov-15 18:00N 16°14' W 061°32'0 0.0
2017-Nov-15 17:27N 16°14' W 061°32'0 0.0
2017-Nov-15 17:00N 16°14' W 061°32'0 0.0
2017-Nov-15 16:30N 16°14' W 061°32'0 0.0
2017-Nov-15 16:00N 16°14' W 061°32'0 0.0
2017-Nov-15 15:29N 16°14' W 061°32'0 0.0
2017-Nov-15 14:56N 16°14' W 061°32'0 0.0
2017-Nov-15 14:29N 16°14' W 061°32'0 0.0
2017-Nov-15 13:02N 16°14' W 061°32'0 0.0
2017-Nov-15 12:57N 16°14' W 061°32'0 0.0
2017-Nov-15 12:23N 16°14' W 061°32'0 0.0
2017-Nov-15 12:00N 16°14' W 061°32'0 0.0
2017-Nov-15 11:30N 16°14' W 061°32'0 0.0
2017-Nov-15 10:55N 16°14' W 061°32'0 0.0
2017-Nov-15 10:29N 16°14' W 061°32'0 0.0
2017-Nov-15 09:56N 16°14' W 061°32'0 0.0
2017-Nov-15 09:03N 16°14' W 061°32'0 0.0
2017-Nov-15 08:59N 16°14' W 061°32'0 0.0
2017-Nov-15 06:58N 16°14' W 061°32'0 0.0
2017-Nov-15 06:26N 16°14' W 061°32'0 0.0
2017-Nov-15 05:47N 16°14' W 061°32'0 0.0
2017-Nov-15 05:28N 16°14' W 061°32'0 0.0
2017-Nov-15 03:57N 16°14' W 061°32'0 0.0
2017-Nov-15 02:55N 16°14' W 061°32'0 0.0
2017-Nov-15 02:30N 16°14' W 061°32'0 0.0
2017-Nov-15 01:57N 16°14' W 061°32'0 0.0
2017-Nov-15 01:22N 16°14' W 061°32'0 0.0
2017-Nov-15 01:00N 16°14' W 061°32'0 0.0
2017-Nov-15 00:30N 16°14' W 061°32'0 0.0
2017-Nov-14 23:58N 16°14' W 061°32'0 0.0
2017-Nov-14 23:30N 16°14' W 061°32'0 0.0
2017-Nov-14 22:57N 16°14' W 061°32'0 0.0
2017-Nov-14 22:30N 16°14' W 061°32'0 0.0
2017-Nov-14 21:05N 16°14' W 061°32'0 6.4
2017-Nov-14 21:00N 16°14' W 061°32'10 3.0
2017-Nov-14 17:44N 16°06' W 061°27'728.1
2017-Nov-14 17:29N 16°11' W 061°31'4 7.8
2017-Nov-14 17:00N 16°14' W 061°33'122 3.0
2017-Nov-12 23:51N 14°15' W 061°04'1028.4
2017-Nov-12 23:31N 14°25' W 061°06'1110.1
2017-Nov-12 22:23N 14°36' W 061°04'101 4.2
2017-Nov-11 22:01N 16°14' W 061°32'010.3
2017-Nov-11 22:00N 16°14' W 061°32'2025.3
2017-Nov-11 21:14N 15°54' W 061°35'1012.1
2017-Nov-11 20:26N 15°45' W 061°34'7520.3
2017-Nov-11 16:45N 14°35' W 061°05'1 1.4
2017-Nov-11 15:45N 14°36' W 061°04'622.5
2017-Nov-11 15:29N 14°31' W 061°06'1327.1
2017-Nov-11 15:00N 14°18' W 061°04'5 1.7
2017-Nov-11 11:52N 14°23' W 061°05'1026.4
2017-Nov-11 11:29N 14°33' W 061°06'4 1.6
2017-Nov-11 09:07N 14°36' W 061°04'0 0.0
2017-Nov-11 08:58N 14°36' W 061°04'0 0.0
2017-Nov-11 08:29N 14°36' W 061°04'0 0.0
2017-Nov-11 04:25N 14°36' W 061°04'0 0.0
2017-Nov-11 03:15N 14°36' W 061°04'0 0.0
2017-Nov-11 02:50N 14°36' W 061°04'0 0.0
2017-Nov-11 02:29N 14°36' W 061°04'0 0.0
2017-Nov-11 01:54N 14°36' W 061°04'0 0.0
2017-Nov-11 01:26N 14°36' W 061°04'0 0.0
2017-Nov-11 01:00N 14°36' W 061°04'0 0.0
2017-Nov-11 00:28N 14°36' W 061°04'0 0.0
2017-Nov-10 23:15N 14°36' W 061°04'0 0.0
2017-Nov-10 21:17N 14°36' W 061°04'724.3
2017-Nov-10 21:01N 14°30' W 061°07'11 3.6
2017-Nov-10 18:04N 14°20' W 061°04'227.0
2017-Nov-10 18:00N 14°22' W 061°04'1326.3
2017-Nov-10 17:30N 14°35' W 061°04'1 2.1
2017-Nov-10 16:54N 14°36' W 061°04'8421.7
2017-Nov-10 13:01N 15°57' W 061°28'026.9
2017-Nov-10 13:00N 15°58' W 061°28'1326.1
2017-Nov-10 12:30N 16°10' W 061°31'4 3.2
2017-Nov-10 11:06N 16°14' W 061°32'1 5.7
2017-Nov-10 11:00N 16°14' W 061°32'11 0.8
2017-Nov-09 21:48N 16°05' W 061°27'828.1
2017-Nov-09 21:30N 16°12' W 061°31'2 4.3
2017-Nov-09 21:00N 16°14' W 061°32'8 2.5
2017-Nov-09 17:44N 16°07' W 061°28'627.7
2017-Nov-09 17:30N 16°12' W 061°31'2 3.9
2017-Nov-09 17:00N 16°14' W 061°32'10 2.3
2017-Nov-09 12:51N 16°06' W 061°27'925.6
2017-Nov-09 12:31N 16°13' W 061°32'1 1.0
2017-Nov-09 11:00N 16°14' W 061°33'0 0.0
2017-Nov-09 09:32N 16°14' W 061°33'0 0.0
2017-Nov-09 09:12N 16°14' W 061°33'0 0.0
2017-Nov-09 06:13N 16°14' W 061°33'0 0.0
2017-Nov-09 04:10N 16°14' W 061°33'0 0.0
2017-Nov-08 14:09N 16°14' W 061°33'0 0.0
2017-Nov-08 13:58N 16°14' W 061°33'0 0.0
2017-Nov-08 13:30N 16°14' W 061°33'0 0.0
2017-Nov-08 12:44N 16°14' W 061°33'0 0.0
2017-Nov-08 12:29N 16°14' W 061°33'0 0.0
2017-Nov-08 11:59N 16°14' W 061°33'0 0.0
2017-Nov-08 11:26N 16°14' W 061°33'0 0.0
2017-Nov-08 09:08N 16°14' W 061°33'0 0.0
2017-Nov-08 08:49N 16°14' W 061°33'0 0.0
2017-Nov-08 08:21N 16°14' W 061°33'0 0.0
2017-Nov-08 07:51N 16°14' W 061°33'0 0.0
2017-Nov-08 07:29N 16°14' W 061°33'0 0.0
2017-Nov-08 06:55N 16°14' W 061°33'0 0.0
2017-Nov-08 06:30N 16°14' W 061°33'0 0.0
2017-Nov-08 06:00N 16°14' W 061°33'0 0.0
2017-Nov-08 05:28N 16°14' W 061°33'0 0.0
2017-Nov-08 04:59N 16°14' W 061°33'0 0.0
2017-Nov-08 04:30N 16°14' W 061°33'0 0.0
2017-Nov-08 03:53N 16°14' W 061°33'0 0.0
2017-Nov-08 03:15N 16°14' W 061°33'0 0.0
2017-Nov-08 02:56N 16°14' W 061°33'0 0.0
2017-Nov-08 02:02N 16°14' W 061°33'0 0.0
2017-Nov-08 01:44N 16°14' W 061°33'0 0.0
2017-Nov-07 23:48N 16°14' W 061°33'  
Track history (hours):
 
Tides and Currents Weather Stations Pressure Air Temp Water Temp Dewpoint Dewpoint Depression Visibility Wind Speed Wind Dir Waves Ship Positions

Liberty

Last reported at 2017-Nov-17 23:01 UTC. Time now 2017-Nov-18 01:22 UTC.
Position N 15°58' W 061°44'.

Length 47 m; draft 1.8 m.

Type: High speed craft. MMSI: 228008600.

Date/timePositionNaut miles runAvg speedWind from/ knotsBaromVisibWave heightAir tempDewpointWater temp
2017-Nov-17 23:01N 15°58' W 061°44'030.4
2017-Nov-17 23:00N 15°58' W 061°44'2116.3
2017-Nov-17 21:45N 15°57' W 061°22'927.1
2017-Nov-17 21:24N 16°06' W 061°27'923.8
2017-Nov-17 21:01N 16°14' W 061°32'1 1.5
2017-Nov-17 20:22N 16°14' W 061°32'0 0.0
2017-Nov-17 19:46N 16°14' W 061°32'0 0.0
2017-Nov-17 19:23N 16°14' W 061°32'0 0.0
2017-Nov-17 18:43N 16°14' W 061°32'0 0.0
2017-Nov-17 18:30N 16°14' W 061°32'0 0.0
2017-Nov-17 18:00N 16°14' W 061°32'612.0
2017-Nov-17 17:31N 16°09' W 061°30'8923.7
2017-Nov-17 13:46N 14°42' W 061°12'26 1.3
2017-Nov-16 18:02N 14°17' W 061°03'127.0
2017-Nov-16 18:00N 14°18' W 061°03'1427.3
2017-Nov-16 17:30N 14°32' W 061°06'510.1
2017-Nov-16 17:00N 14°36' W 061°04'0 0.4
2017-Nov-16 16:30N 14°36' W 061°04'9022.5
2017-Nov-16 12:30N 16°03' W 061°30'1123.0
2017-Nov-16 12:00N 16°14' W 061°32'0 0.9
2017-Nov-16 11:30N 16°14' W 061°32'0 0.0
2017-Nov-16 11:00N 16°14' W 061°32'0 0.0
2017-Nov-16 10:30N 16°14' W 061°32'0 0.0
2017-Nov-16 10:00N 16°14' W 061°32'0 0.0
2017-Nov-16 09:30N 16°14' W 061°32'0 0.0
2017-Nov-16 09:00N 16°14' W 061°32'0 0.0
2017-Nov-16 08:29N 16°14' W 061°32'0 0.0
2017-Nov-16 08:00N 16°14' W 061°32'0 0.0
2017-Nov-16 07:28N 16°14' W 061°32'0 0.0
2017-Nov-16 07:00N 16°14' W 061°32'0 0.0
2017-Nov-16 06:24N 16°14' W 061°32'0 0.0
2017-Nov-16 05:45N 16°14' W 061°32'0 0.0
2017-Nov-16 05:30N 16°14' W 061°32'0 0.0
2017-Nov-16 04:37N 16°14' W 061°32'0 0.0
2017-Nov-16 04:13N 16°14' W 061°32'0 0.0
2017-Nov-16 03:50N 16°14' W 061°32'0 0.0
2017-Nov-16 03:13N 16°14' W 061°32'0 0.0
2017-Nov-16 02:59N 16°14' W 061°32'0 0.0
2017-Nov-16 02:24N 16°14' W 061°32'0 0.0
2017-Nov-16 01:58N 16°14' W 061°32'0 0.0
2017-Nov-16 01:30N 16°14' W 061°32'0 0.0
2017-Nov-16 01:00N 16°14' W 061°32'0 0.0
2017-Nov-15 21:44N 16°14' W 061°32'0 0.0
2017-Nov-15 21:29N 16°14' W 061°32'0 0.0
2017-Nov-15 21:00N 16°14' W 061°32'1 2.0
2017-Nov-15 20:30N 16°13' W 061°32'1 2.0
2017-Nov-15 20:00N 16°14' W 061°32'0 0.0
2017-Nov-15 19:30N 16°14' W 061°32'0 0.0
2017-Nov-15 19:00N 16°14' W 061°32'0 0.0
2017-Nov-15 18:30N 16°14' W 061°32'0 0.0
2017-Nov-15 18:00N 16°14' W 061°32'0 0.0
2017-Nov-15 17:27N 16°14' W 061°32'0 0.0
2017-Nov-15 17:00N 16°14' W 061°32'0 0.0
2017-Nov-15 16:30N 16°14' W 061°32'0 0.0
2017-Nov-15 16:00N 16°14' W 061°32'0 0.0
2017-Nov-15 15:29N 16°14' W 061°32'0 0.0
2017-Nov-15 14:56N 16°14' W 061°32'0 0.0
2017-Nov-15 14:29N 16°14' W 061°32'0 0.0
2017-Nov-15 13:02N 16°14' W 061°32'0 0.0
2017-Nov-15 12:57N 16°14' W 061°32'0 0.0
2017-Nov-15 12:23N 16°14' W 061°32'0 0.0
2017-Nov-15 12:00N 16°14' W 061°32'0 0.0
2017-Nov-15 11:30N 16°14' W 061°32'0 0.0
2017-Nov-15 10:55N 16°14' W 061°32'0 0.0
2017-Nov-15 10:29N 16°14' W 061°32'0 0.0
2017-Nov-15 09:56N 16°14' W 061°32'0 0.0
2017-Nov-15 09:03N 16°14' W 061°32'0 0.0
2017-Nov-15 08:59N 16°14' W 061°32'0 0.0
2017-Nov-15 06:58N 16°14' W 061°32'0 0.0
2017-Nov-15 06:26N 16°14' W 061°32'0 0.0
2017-Nov-15 05:47N 16°14' W 061°32'0 0.0
2017-Nov-15 05:28N 16°14' W 061°32'0 0.0
2017-Nov-15 03:57N 16°14' W 061°32'0 0.0
2017-Nov-15 02:55N 16°14' W 061°32'0 0.0
2017-Nov-15 02:30N 16°14' W 061°32'0 0.0
2017-Nov-15 01:57N 16°14' W 061°32'0 0.0
2017-Nov-15 01:22N 16°14' W 061°32'0 0.0
2017-Nov-15 01:00N 16°14' W 061°32'0 0.0
2017-Nov-15 00:30N 16°14' W 061°32'0 0.0
2017-Nov-14 23:58N 16°14' W 061°32'0 0.0
2017-Nov-14 23:30N 16°14' W 061°32'0 0.0
2017-Nov-14 22:57N 16°14' W 061°32'0 0.0
2017-Nov-14 22:30N 16°14' W 061°32'0 0.0
2017-Nov-14 21:05N 16°14' W 061°32'0 6.4
2017-Nov-14 21:00N 16°14' W 061°32'10 3.0
2017-Nov-14 17:44N 16°06' W 061°27'728.1
2017-Nov-14 17:29N 16°11' W 061°31'4 7.8
2017-Nov-14 17:00N 16°14' W 061°33'122 3.0
2017-Nov-12 23:51N 14°15' W 061°04'1028.4
2017-Nov-12 23:31N 14°25' W 061°06'1110.1
2017-Nov-12 22:23N 14°36' W 061°04'101 4.2
2017-Nov-11 22:01N 16°14' W 061°32'010.3
2017-Nov-11 22:00N 16°14' W 061°32'2025.3
2017-Nov-11 21:14N 15°54' W 061°35'1012.1
2017-Nov-11 20:26N 15°45' W 061°34'7520.3
2017-Nov-11 16:45N 14°35' W 061°05'1 1.4
2017-Nov-11 15:45N 14°36' W 061°04'622.5
2017-Nov-11 15:29N 14°31' W 061°06'1327.1
2017-Nov-11 15:00N 14°18' W 061°04'5 1.7
2017-Nov-11 11:52N 14°23' W 061°05'1026.4
2017-Nov-11 11:29N 14°33' W 061°06'4 1.6
2017-Nov-11 09:07N 14°36' W 061°04'0 0.0
2017-Nov-11 08:58N 14°36' W 061°04'0 0.0
2017-Nov-11 08:29N 14°36' W 061°04'0 0.0
2017-Nov-11 04:25N 14°36' W 061°04'0 0.0
2017-Nov-11 03:15N 14°36' W 061°04'0 0.0
2017-Nov-11 02:50N 14°36' W 061°04'0 0.0
2017-Nov-11 02:29N 14°36' W 061°04'0 0.0
2017-Nov-11 01:54N 14°36' W 061°04'0 0.0
2017-Nov-11 01:26N 14°36' W 061°04'0 0.0
2017-Nov-11 01:00N 14°36' W 061°04'0 0.0
2017-Nov-11 00:28N 14°36' W 061°04'0 0.0
2017-Nov-10 23:15N 14°36' W 061°04'0 0.0
2017-Nov-10 21:17N 14°36' W 061°04'724.3
2017-Nov-10 21:01N 14°30' W 061°07'11 3.6
2017-Nov-10 18:04N 14°20' W 061°04'227.0
2017-Nov-10 18:00N 14°22' W 061°04'1326.3
2017-Nov-10 17:30N 14°35' W 061°04'1 2.1
2017-Nov-10 16:54N 14°36' W 061°04'8421.7
2017-Nov-10 13:01N 15°57' W 061°28'026.9
2017-Nov-10 13:00N 15°58' W 061°28'1326.1
2017-Nov-10 12:30N 16°10' W 061°31'4 3.2
2017-Nov-10 11:06N 16°14' W 061°32'1 5.7
2017-Nov-10 11:00N 16°14' W 061°32'11 0.8
2017-Nov-09 21:48N 16°05' W 061°27'828.1
2017-Nov-09 21:30N 16°12' W 061°31'2 4.3
2017-Nov-09 21:00N 16°14' W 061°32'8 2.5
2017-Nov-09 17:44N 16°07' W 061°28'627.7
2017-Nov-09 17:30N 16°12' W 061°31'2 3.9
2017-Nov-09 17:00N 16°14' W 061°32'10 2.3
2017-Nov-09 12:51N 16°06' W 061°27'925.6
2017-Nov-09 12:31N 16°13' W 061°32'1 1.0
2017-Nov-09 11:00N 16°14' W 061°33'0 0.0
2017-Nov-09 09:32N 16°14' W 061°33'0 0.0
2017-Nov-09 09:12N 16°14' W 061°33'0 0.0
2017-Nov-09 06:13N 16°14' W 061°33'0 0.0
2017-Nov-09 04:10N 16°14' W 061°33'0 0.0
2017-Nov-08 14:09N 16°14' W 061°33'0 0.0
2017-Nov-08 13:58N 16°14' W 061°33'0 0.0
2017-Nov-08 13:30N 16°14' W 061°33'0 0.0
2017-Nov-08 12:44N 16°14' W 061°33'0 0.0
2017-Nov-08 12:29N 16°14' W 061°33'0 0.0
2017-Nov-08 11:59N 16°14' W 061°33'0 0.0
2017-Nov-08 11:26N 16°14' W 061°33'0 0.0
2017-Nov-08 09:08N 16°14' W 061°33'0 0.0
2017-Nov-08 08:49N 16°14' W 061°33'0 0.0
2017-Nov-08 08:21N 16°14' W 061°33'0 0.0
2017-Nov-08 07:51N 16°14' W 061°33'0 0.0
2017-Nov-08 07:29N 16°14' W 061°33'0 0.0
2017-Nov-08 06:55N 16°14' W 061°33'0 0.0
2017-Nov-08 06:30N 16°14' W 061°33'0 0.0
2017-Nov-08 06:00N 16°14' W 061°33'0 0.0
2017-Nov-08 05:28N 16°14' W 061°33'0 0.0
2017-Nov-08 04:59N 16°14' W 061°33'0 0.0
2017-Nov-08 04:30N 16°14' W 061°33'0 0.0
2017-Nov-08 03:53N 16°14' W 061°33'0 0.0
2017-Nov-08 03:15N 16°14' W 061°33'0 0.0
2017-Nov-08 02:56N 16°14' W 061°33'0 0.0
2017-Nov-08 02:02N 16°14' W 061°33'0 0.0
2017-Nov-08 01:44N 16°14' W 061°33'0 0.0
2017-Nov-07 23:48N 16°14' W 061°33'  

Dump ship's entire track history